Time;durP1;ratioP1;P1;durP2;ratioP2;P2;SDS_P1;SDS_P2;PMS_P1;PMS_P2;Temp;Humidity;BMP_temperature;BMP_pressure;BME280_temperature;BME280_humidity;BME280_pressure;Samples;Min_cycle;Max_cycle;Signal;HPM_P1;HPM_P2
2023/03/17 00:00:35;;;;;;;9.30;5.30;;;1.20;98.30;;;;;;5017865;28;20567;-72
2023/03/17 00:03:02;;;;;;;6.40;2.63;;;1.10;98.40;;;;;;5010372;28;20029;-72
2023/03/17 00:05:34;;;;;;;4.47;2.63;;;1.10;97.50;;;;;;5019717;28;20021;-72
2023/03/17 00:08:21;;;;;;;4.80;2.75;;;0.90;96.70;;;;;;5017310;28;20077;-71
2023/03/17 00:10:48;;;;;;;6.15;3.42;;;0.80;97.30;;;;;;5015152;28;20037;-73
2023/03/17 00:13:14;;;;;;;7.90;3.72;;;0.80;97.60;;;;;;5018620;28;20244;-73
2023/03/17 00:15:40;;;;;;;10.18;3.13;;;0.80;97.60;;;;;;5018009;28;20032;-73
2023/03/17 00:18:13;;;;;;;5.63;2.50;;;0.80;98.70;;;;;;5016864;28;20076;-65
2023/03/17 00:20:39;;;;;;;5.00;2.78;;;0.90;98.50;;;;;;5018595;28;20390;-65
2023/03/17 00:23:10;;;;;;;5.03;2.90;;;0.90;97.90;;;;;;5016027;28;20052;-66
2023/03/17 00:25:36;;;;;;;7.57;3.33;;;0.80;97.90;;;;;;5014778;28;20579;-66
2023/03/17 00:28:03;;;;;;;6.20;3.30;;;0.70;98.00;;;;;;5014461;28;20034;-66
2023/03/17 00:30:29;;;;;;;6.22;2.70;;;0.60;98.70;;;;;;5017801;28;20049;-66
2023/03/17 00:32:56;;;;;;;4.88;2.97;;;0.60;99.40;;;;;;5015586;28;20056;-65
2023/03/17 00:35:24;;;;;;;8.23;3.00;;;0.40;99.60;;;;;;5018786;28;20033;-65
2023/03/17 00:37:54;;;;;;;5.63;2.90;;;0.40;99.90;;;;;;5011455;28;20028;-66
2023/03/17 00:40:26;;;;;;;5.82;3.60;;;0.50;99.90;;;;;;5013668;28;20025;-65
2023/03/17 00:42:52;;;;;;;6.15;3.05;;;0.50;99.60;;;;;;5013930;28;20089;-66
2023/03/17 00:45:20;;;;;;;7.53;4.00;;;0.50;99.90;;;;;;5015993;28;20090;-65
2023/03/17 00:47:46;;;;;;;8.15;4.75;;;0.40;99.90;;;;;;5014576;28;20057;-66
2023/03/17 00:50:17;;;;;;;9.35;5.20;;;0.40;99.90;;;;;;5013350;28;20108;-66
2023/03/17 00:52:44;;;;;;;8.07;4.38;;;0.50;99.90;;;;;;5014670;28;20060;-65
2023/03/17 00:55:10;;;;;;;9.75;4.93;;;0.60;99.90;;;;;;5010533;28;20087;-65
2023/03/17 00:57:38;;;;;;;13.30;4.40;;;0.60;99.90;;;;;;5013952;28;20022;-64
2023/03/17 01:00:05;;;;;;;4.80;2.80;;;0.60;99.90;;;;;;5012718;28;20036;-64
2023/03/17 01:02:31;;;;;;;6.25;3.78;;;0.60;99.90;;;;;;5008778;28;20029;-64
2023/03/17 01:04:59;;;;;;;7.50;3.53;;;0.60;99.90;;;;;;5015762;28;20075;-65
2023/03/17 01:07:27;;;;;;;8.20;4.53;;;0.60;99.90;;;;;;5016378;28;20034;-66
2023/03/17 01:09:53;;;;;;;9.30;3.85;;;0.50;99.90;;;;;;5011282;28;20085;-65
2023/03/17 01:12:20;;;;;;;7.90;4.13;;;0.60;99.90;;;;;;5011194;28;20053;-65
2023/03/17 01:14:47;;;;;;;8.65;5.03;;;0.50;99.90;;;;;;5017496;28;20104;-65
2023/03/17 01:17:17;;;;;;;7.28;4.25;;;0.40;99.90;;;;;;5010840;28;20018;-65
2023/03/17 01:19:44;;;;;;;9.32;4.43;;;0.50;99.90;;;;;;4997352;28;20099;-65
2023/03/17 01:22:10;;;;;;;9.52;4.88;;;0.40;99.90;;;;;;5016111;28;21950;-66
2023/03/17 01:24:36;;;;;;;6.50;3.88;;;0.30;99.90;;;;;;5013972;28;20029;-65
2023/03/17 01:27:02;;;;;;;8.30;4.57;;;0.30;99.90;;;;;;5013640;28;20083;-66
2023/03/17 02:06:57;;;;;;;8.13;4.00;;;-0.30;99.90;;;;;;5042476;28;20520;-67
2023/03/17 02:09:23;;;;;;;6.90;3.88;;;-0.20;99.90;;;;;;5046797;28;20052;-65
2023/03/17 02:11:49;;;;;;;8.30;4.47;;;-0.10;99.90;;;;;;5044980;28;20037;-66
2023/03/17 02:14:15;;;;;;;6.05;3.80;;;-0.20;99.90;;;;;;5046066;28;20044;-72
2023/03/17 02:16:46;;;;;;;5.07;3.08;;;-0.20;99.90;;;;;;5047437;28;20076;-72
2023/03/17 02:19:12;;;;;;;6.27;3.40;;;-0.20;99.90;;;;;;5050110;28;20074;-72
2023/03/17 02:21:53;;;;;;;5.65;3.53;;;-0.20;99.90;;;;;;5046386;28;20040;-71
2023/03/17 02:24:42;;;;;;;7.72;4.38;;;-0.10;99.90;;;;;;5049884;28;20043;-72
2023/03/17 02:27:11;;;;;;;6.72;3.67;;;-0.10;99.90;;;;;;5045970;28;20741;-72
2023/03/17 02:29:38;;;;;;;6.18;3.95;;;-0.10;99.90;;;;;;5047786;28;20581;-71
2023/03/17 02:32:04;;;;;;;8.27;4.32;;;0.00;99.90;;;;;;5045251;28;20040;-72
2023/03/17 02:34:31;;;;;;;10.45;3.47;;;0.00;99.90;;;;;;5050961;28;20039;-71
2023/03/17 02:36:57;;;;;;;7.63;4.00;;;0.00;99.90;;;;;;5048487;28;20151;-72
2023/03/17 02:39:23;;;;;;;5.97;3.33;;;-0.10;99.90;;;;;;5046980;28;20588;-71
2023/03/17 02:41:49;;;;;;;3.45;2.72;;;-0.10;99.90;;;;;;5042843;28;20052;-72
2023/03/17 02:44:15;;;;;;;4.60;2.25;;;-0.20;99.90;;;;;;5049824;28;20273;-71
2023/03/17 02:46:41;;;;;;;4.22;2.78;;;-0.20;99.90;;;;;;5045491;28;20027;-71
2023/03/17 02:49:07;;;;;;;7.53;3.00;;;-0.30;99.90;;;;;;5046753;28;20048;-71
2023/03/17 02:51:32;;;;;;;3.17;2.53;;;-0.40;99.90;;;;;;5046607;28;20115;-71
2023/03/17 02:53:58;;;;;;;5.75;2.10;;;-0.40;99.90;;;;;;5043623;28;20052;-72
2023/03/17 02:56:24;;;;;;;3.08;2.25;;;-0.50;99.90;;;;;;5048574;28;20764;-71
2023/03/17 02:58:49;;;;;;;3.47;2.60;;;-0.60;99.90;;;;;;5045906;28;20048;-71
2023/03/17 03:01:16;;;;;;;4.95;2.50;;;-0.50;99.90;;;;;;5047782;28;20033;-71
2023/03/17 03:03:41;;;;;;;4.32;2.70;;;-0.50;99.90;;;;;;5058197;28;20536;-71
2023/03/17 03:06:07;;;;;;;3.65;2.70;;;-0.50;99.90;;;;;;5051576;28;20359;-71
2023/03/17 03:08:33;;;;;;;4.03;2.47;;;-0.50;99.90;;;;;;5051257;28;20033;-71
2023/03/17 03:11:01;;;;;;;3.15;2.15;;;-0.60;99.90;;;;;;5050696;28;20067;-72
2023/03/17 03:13:27;;;;;;;4.80;2.75;;;-0.60;99.90;;;;;;5057596;28;20035;-72
2023/03/17 03:15:53;;;;;;;5.70;2.65;;;-0.50;99.90;;;;;;5050265;28;20590;-71
2023/03/17 03:18:18;;;;;;;4.25;2.30;;;-0.50;99.90;;;;;;5052197;28;20044;-71
2023/03/17 03:20:45;;;;;;;3.42;2.25;;;-0.50;99.90;;;;;;5053261;28;20068;-71
2023/03/17 03:23:11;;;;;;;5.32;2.17;;;-0.50;99.90;;;;;;5056571;28;20091;-71
2023/03/17 03:25:37;;;;;;;4.13;2.30;;;-0.60;99.90;;;;;;5054876;28;20032;-71
2023/03/17 03:28:06;;;;;;;4.75;2.63;;;-0.80;99.90;;;;;;5062180;28;20115;-71
2023/03/17 03:30:34;;;;;;;4.57;2.70;;;-0.90;99.90;;;;;;5057253;28;20129;-71
2023/03/17 03:33:00;;;;;;;4.68;2.53;;;-0.90;99.90;;;;;;5059150;28;20032;-71
2023/03/17 03:35:27;;;;;;;6.32;2.08;;;-0.90;99.90;;;;;;5057996;28;20041;-71
2023/03/17 03:37:53;;;;;;;4.85;2.28;;;-0.90;99.90;;;;;;5055739;28;20029;-72
2023/03/17 03:40:18;;;;;;;4.25;2.03;;;-0.90;99.90;;;;;;5059511;28;20039;-71
2023/03/17 03:42:44;;;;;;;5.85;2.00;;;-0.90;99.90;;;;;;5058774;28;20027;-71
2023/03/17 03:45:10;;;;;;;3.85;2.00;;;-1.00;99.90;;;;;;5059206;28;20055;-71
2023/03/17 03:47:35;;;;;;;4.07;2.20;;;-1.00;99.90;;;;;;5058815;28;20040;-73
2023/03/17 03:50:01;;;;;;;3.33;2.00;;;-1.00;99.90;;;;;;5049876;28;20060;-66
2023/03/17 03:52:27;;;;;;;5.65;2.45;;;-1.10;99.90;;;;;;5050561;28;20666;-66
2023/03/17 03:54:52;;;;;;;4.70;2.53;;;-1.20;99.90;;;;;;5052235;28;20437;-66
2023/03/17 03:57:18;;;;;;;4.60;2.22;;;-1.20;99.90;;;;;;5055556;28;20040;-65
2023/03/17 03:59:44;;;;;;;4.53;2.30;;;-1.10;99.90;;;;;;5050420;28;20431;-66
2023/03/17 04:02:10;;;;;;;4.30;2.40;;;-1.10;99.90;;;;;;5054688;28;20119;-66
2023/03/17 04:04:36;;;;;;;6.80;2.95;;;-1.10;99.90;;;;;;5054172;28;20024;-66
2023/03/17 04:07:01;;;;;;;4.60;2.90;;;-1.10;99.90;;;;;;5058964;28;20051;-66
2023/03/17 04:09:27;;;;;;;5.85;2.25;;;-1.00;99.90;;;;;;5058842;28;20528;-66
2023/03/17 04:11:52;;;;;;;6.95;3.58;;;-0.90;99.90;;;;;;5059753;28;20036;-66
2023/03/17 04:14:18;;;;;;;5.90;2.95;;;-0.90;99.90;;;;;;5057040;28;20090;-66
2023/03/17 04:16:44;;;;;;;4.97;2.90;;;-0.90;99.90;;;;;;5054783;28;20060;-66
2023/03/17 04:19:10;;;;;;;6.38;3.20;;;-0.80;99.90;;;;;;5052917;28;20037;-66
2023/03/17 04:21:36;;;;;;;5.10;2.35;;;-0.80;99.90;;;;;;5059357;28;20028;-66
2023/03/17 04:24:04;;;;;;;4.25;1.92;;;-0.70;99.90;;;;;;5058899;28;20044;-66
2023/03/17 04:26:30;;;;;;;2.95;1.92;;;-0.70;99.90;;;;;;5044199;28;20094;-66
2023/03/17 04:28:56;;;;;;;9.60;2.03;;;-0.70;99.90;;;;;;5057932;28;20048;-66
2023/03/17 04:31:22;;;;;;;3.28;1.98;;;-0.70;99.90;;;;;;5054626;28;20451;-66
2023/03/17 04:33:48;;;;;;;6.32;2.55;;;-0.70;99.90;;;;;;5058759;28;20041;-66
2023/03/17 04:36:22;;;;;;;4.25;2.08;;;-0.80;99.90;;;;;;5051645;28;20037;-65
2023/03/17 04:38:47;;;;;;;3.42;1.85;;;-0.80;99.90;;;;;;5039810;28;20044;-65
2023/03/17 04:41:13;;;;;;;4.85;1.90;;;-0.90;99.90;;;;;;5054604;28;20036;-65
2023/03/17 04:43:40;;;;;;;6.95;2.83;;;-0.90;99.90;;;;;;5059609;28;20097;-65
2023/03/17 04:46:05;;;;;;;7.13;3.72;;;-1.00;99.90;;;;;;5058687;28;20041;-71
2023/03/17 04:48:31;;;;;;;9.23;4.70;;;-1.00;99.90;;;;;;5059897;28;20585;-71
2023/03/17 04:50:57;;;;;;;6.63;3.53;;;-1.00;99.90;;;;;;5057534;28;20040;-71
2023/03/17 04:53:23;;;;;;;6.95;3.78;;;-0.90;99.90;;;;;;5054600;28;20116;-71
2023/03/17 04:55:49;;;;;;;9.70;4.50;;;-0.90;99.90;;;;;;5057701;28;20111;-71
2023/03/17 04:58:15;;;;;;;7.78;4.30;;;-0.80;99.90;;;;;;5063918;28;20595;-72
2023/03/17 05:00:41;;;;;;;12.25;4.10;;;-0.80;99.90;;;;;;5053223;28;20200;-72
2023/03/17 05:03:06;;;;;;;8.05;4.20;;;-0.80;99.90;;;;;;5055869;28;20037;-71
2023/03/17 05:05:33;;;;;;;8.30;3.95;;;-0.80;99.90;;;;;;5056122;28;20799;-65
2023/03/17 05:08:00;;;;;;;7.78;3.95;;;-0.80;99.90;;;;;;5056063;28;20051;-65
2023/03/17 05:10:25;;;;;;;11.77;5.72;;;-0.90;99.90;;;;;;5055407;28;20073;-65
2023/03/17 05:12:51;;;;;;;10.73;7.35;;;-0.90;99.90;;;;;;5057107;28;20603;-65
2023/03/17 05:15:17;;;;;;;8.38;5.13;;;-0.90;99.90;;;;;;5057995;28;20049;-65
2023/03/17 05:17:42;;;;;;;6.93;4.25;;;-0.90;99.90;;;;;;5058876;28;20028;-66
2023/03/17 05:20:10;;;;;;;7.63;2.83;;;-0.90;99.90;;;;;;5056115;28;20769;-71
2023/03/17 05:22:36;;;;;;;4.00;2.38;;;-0.90;99.90;;;;;;5044795;28;20040;-71
2023/03/17 05:25:03;;;;;;;3.92;1.95;;;-0.90;99.90;;;;;;5054348;28;20032;-69
2023/03/17 05:27:29;;;;;;;4.38;2.58;;;-1.00;99.90;;;;;;5042460;28;20056;-69
2023/03/17 05:29:55;;;;;;;6.15;2.75;;;-1.00;99.90;;;;;;5060777;28;20040;-69
2023/03/17 05:32:21;;;;;;;5.05;2.88;;;-0.90;99.90;;;;;;5058908;28;20814;-69
2023/03/17 05:34:47;;;;;;;4.38;2.50;;;-0.80;99.90;;;;;;5058802;28;20032;-69
2023/03/17 05:37:13;;;;;;;4.13;2.63;;;-0.70;99.90;;;;;;5057310;28;20029;-69
2023/03/17 05:39:39;;;;;;;7.70;3.42;;;-0.70;99.90;;;;;;5056890;28;20037;-69
2023/03/17 05:42:05;;;;;;;10.65;5.32;;;-0.60;99.90;;;;;;5056728;28;20293;-70
2023/03/17 05:44:31;;;;;;;6.32;3.45;;;-0.50;99.90;;;;;;5056611;28;20040;-66
2023/03/17 05:46:58;;;;;;;16.10;8.07;;;-0.40;99.90;;;;;;5052941;28;20666;-66
2023/03/17 05:49:25;;;;;;;18.65;9.57;;;-0.30;99.90;;;;;;5040219;28;20048;-65
2023/03/17 05:51:51;;;;;;;17.77;8.60;;;-0.10;99.90;;;;;;5056237;28;20045;-65
2023/03/17 05:54:17;;;;;;;10.07;5.15;;;0.10;99.90;;;;;;5054918;28;20036;-66
2023/03/17 05:56:42;;;;;;;8.45;4.45;;;0.30;99.90;;;;;;5056137;28;20035;-64
2023/03/17 05:59:09;;;;;;;7.57;3.70;;;0.40;99.90;;;;;;5057058;28;20052;-66
2023/03/17 06:01:35;;;;;;;11.82;5.38;;;0.60;99.90;;;;;;5053746;28;20102;-65
2023/03/17 06:04:02;;;;;;;9.20;4.47;;;0.70;99.90;;;;;;5056421;28;20035;-68
2023/03/17 06:06:27;;;;;;;15.93;8.73;;;0.90;99.90;;;;;;5054070;28;20503;-66
2023/03/17 06:08:54;;;;;;;16.90;8.40;;;1.10;99.90;;;;;;5050950;28;20056;-64
2023/03/17 06:11:20;;;;;;;14.82;9.18;;;1.20;99.90;;;;;;5055668;28;20052;-64
2023/03/17 06:13:46;;;;;;;20.77;14.85;;;1.30;99.90;;;;;;5056595;28;20028;-66
2023/03/17 06:16:12;;;;;;;20.35;14.38;;;1.40;99.90;;;;;;5056290;28;20036;-65
2023/03/17 06:18:38;;;;;;;21.05;12.60;;;1.40;99.90;;;;;;5049145;28;20558;-64
2023/03/17 06:21:04;;;;;;;15.18;9.70;;;1.60;99.90;;;;;;5052847;28;20025;-66
2023/03/17 06:23:29;;;;;;;16.10;10.90;;;1.80;99.90;;;;;;5048824;28;20029;-65
2023/03/17 06:25:55;;;;;;;22.10;9.55;;;2.10;99.90;;;;;;5048331;28;20075;-65
2023/03/17 06:28:21;;;;;;;27.58;9.48;;;2.20;99.90;;;;;;5048287;28;20456;-66
2023/03/17 06:30:48;;;;;;;25.55;9.55;;;2.30;99.90;;;;;;5046630;28;20051;-65
2023/03/17 06:33:14;;;;;;;20.55;10.60;;;2.50;99.90;;;;;;5048448;28;20111;-71
2023/03/17 06:35:40;;;;;;;15.02;8.52;;;2.70;99.90;;;;;;5047344;28;20056;-67
2023/03/17 06:38:06;;;;;;;11.95;8.32;;;2.80;99.90;;;;;;5046185;28;20127;-66
2023/03/17 06:40:32;;;;;;;12.23;7.72;;;2.90;99.90;;;;;;5046528;28;20215;-66
2023/03/17 06:42:59;;;;;;;13.63;8.23;;;3.00;99.90;;;;;;5047941;28;20036;-64
2023/03/17 06:45:24;;;;;;;11.90;7.78;;;3.10;99.90;;;;;;5047973;28;20033;-66
2023/03/17 06:47:50;;;;;;;13.38;7.57;;;3.30;99.90;;;;;;5057451;28;20049;-65
2023/03/17 06:50:16;;;;;;;10.35;6.88;;;3.50;99.90;;;;;;5059252;28;20055;-65
2023/03/17 06:52:42;;;;;;;16.15;6.25;;;3.60;99.90;;;;;;5057935;28;20497;-66
2023/03/17 06:55:09;;;;;;;9.43;6.25;;;3.70;99.90;;;;;;5054020;28;20072;-66
2023/03/17 06:57:36;;;;;;;21.48;6.95;;;3.80;99.90;;;;;;5054850;28;20055;-66
2023/03/17 07:00:05;;;;;;;8.48;6.20;;;3.90;99.90;;;;;;5063952;28;20067;-65
2023/03/17 07:02:31;;;;;;;9.43;5.35;;;4.10;99.90;;;;;;5059879;28;20041;-65
2023/03/17 07:04:57;;;;;;;8.60;4.43;;;4.30;99.90;;;;;;5063714;28;20064;-66
2023/03/17 07:07:23;;;;;;;4.75;3.47;;;4.40;99.90;;;;;;5064764;28;20090;-66
2023/03/17 07:09:51;;;;;;;7.63;3.65;;;4.70;99.90;;;;;;5059642;28;20044;-66
2023/03/17 07:12:17;;;;;;;6.95;3.83;;;4.70;99.90;;;;;;5060130;28;20031;-66
2023/03/17 07:14:44;;;;;;;8.02;3.80;;;4.80;99.90;;;;;;5061549;28;21311;-66
2023/03/17 07:17:11;;;;;;;7.95;3.83;;;5.00;99.90;;;;;;5062274;28;20028;-66
2023/03/17 07:19:37;;;;;;;6.05;4.05;;;5.20;99.90;;;;;;5068892;28;20025;-70
2023/03/17 07:22:03;;;;;;;5.00;3.63;;;5.40;99.50;;;;;;5068135;28;20549;-70
2023/03/17 07:24:29;;;;;;;6.65;2.92;;;5.70;99.60;;;;;;5069210;28;20545;-70
2023/03/17 07:26:54;;;;;;;7.57;3.50;;;5.90;96.90;;;;;;5062228;28;20025;-70
2023/03/17 07:29:21;;;;;;;6.47;3.28;;;6.10;96.00;;;;;;5057703;28;20113;-69
2023/03/17 07:31:48;;;;;;;4.78;3.25;;;6.40;94.80;;;;;;5061096;28;20039;-70
2023/03/17 07:34:14;;;;;;;5.68;3.42;;;6.40;94.40;;;;;;5058939;28;20110;-70
2023/03/17 07:36:40;;;;;;;6.00;3.53;;;6.50;93.60;;;;;;5063111;28;20035;-70
2023/03/17 07:39:06;;;;;;;7.32;3.70;;;6.50;94.80;;;;;;5063446;28;20837;-71
2023/03/17 07:41:33;;;;;;;9.13;3.05;;;6.60;94.10;;;;;;5060709;28;20024;-70
2023/03/17 07:43:59;;;;;;;4.97;2.92;;;6.70;93.90;;;;;;5059693;28;20293;-70
2023/03/17 07:46:25;;;;;;;8.32;3.50;;;6.80;93.30;;;;;;5061804;28;20307;-70
2023/03/17 07:48:52;;;;;;;5.32;3.03;;;7.00;93.00;;;;;;5059821;28;20040;-69
2023/03/17 07:51:21;;;;;;;5.32;3.03;;;7.20;91.80;;;;;;5061967;28;20040;-71
2023/03/17 07:53:48;;;;;;;6.90;2.78;;;7.30;91.10;;;;;;5055546;28;20385;-70
2023/03/17 07:56:15;;;;;;;14.57;3.00;;;7.50;89.90;;;;;;5057653;28;20042;-67
2023/03/17 07:58:42;;;;;;;5.18;2.83;;;7.50;90.10;;;;;;5059738;28;20477;-71
2023/03/17 08:01:08;;;;;;;3.95;2.85;;;7.70;90.40;;;;;;5062013;28;20036;-70
2023/03/17 08:03:35;;;;;;;7.25;3.33;;;7.90;90.30;;;;;;5038265;28;20039;-70
2023/03/17 08:06:01;;;;;;;5.45;3.25;;;8.00;88.40;;;;;;5060307;28;20059;-70
2023/03/17 08:08:27;;;;;;;6.82;2.80;;;8.10;87.30;;;;;;5057786;28;20597;-70
2023/03/17 08:11:02;;;;;;;6.18;2.75;;;8.20;85.00;;;;;;5058371;28;20060;-70
2023/03/17 08:13:28;;;;;;;4.90;2.70;;;8.30;83.40;;;;;;5059425;28;20020;-70
2023/03/17 08:15:54;;;;;;;10.88;3.10;;;8.50;82.50;;;;;;5061187;28;20048;-67
2023/03/17 08:18:20;;;;;;;4.55;2.35;;;8.50;80.60;;;;;;5060890;28;20111;-67
2023/03/17 08:20:46;;;;;;;4.30;2.72;;;8.50;80.10;;;;;;5059834;28;20051;-67
2023/03/17 08:23:13;;;;;;;5.95;3.25;;;8.50;80.20;;;;;;5061632;28;20054;-67
2023/03/17 08:25:38;;;;;;;5.47;2.78;;;8.70;78.90;;;;;;5058812;28;20040;-67
2023/03/17 08:28:04;;;;;;;6.18;2.80;;;8.70;77.30;;;;;;5044872;28;20036;-67
2023/03/17 08:30:31;;;;;;;5.00;2.08;;;8.80;75.30;;;;;;5058773;28;20087;-67
2023/03/17 08:32:56;;;;;;;6.32;2.40;;;9.00;74.80;;;;;;5057369;28;20115;-67
2023/03/17 08:35:22;;;;;;;3.65;2.45;;;9.20;71.20;;;;;;5056105;28;20043;-67
2023/03/17 08:37:48;;;;;;;4.75;2.47;;;9.10;69.40;;;;;;5061231;28;20451;-66
2023/03/17 08:40:16;;;;;;;6.35;3.58;;;9.10;69.80;;;;;;5059712;28;20055;-67
2023/03/17 08:42:43;;;;;;;5.70;2.70;;;9.10;70.50;;;;;;5058122;28;20117;-67
2023/03/17 08:45:10;;;;;;;7.18;2.65;;;9.20;70.50;;;;;;5040641;28;20580;-66
2023/03/17 08:47:36;;;;;;;4.78;2.47;;;9.30;70.00;;;;;;5056485;28;20166;-67
2023/03/17 08:50:03;;;;;;;4.78;2.30;;;9.50;69.10;;;;;;5061892;28;20411;-66
2023/03/17 08:52:30;;;;;;;4.63;2.20;;;9.60;62.30;;;;;;5053671;28;20029;-67
2023/03/17 08:54:56;;;;;;;3.47;1.67;;;9.40;62.00;;;;;;5055885;28;20468;-68
2023/03/17 08:57:22;;;;;;;3.38;1.80;;;9.40;62.50;;;;;;5044994;28;20114;-67
2023/03/17 08:59:47;;;;;;;5.28;2.20;;;9.40;60.00;;;;;;5059840;28;20848;-68
2023/03/17 09:02:14;;;;;;;4.10;1.80;;;9.30;58.50;;;;;;5061356;28;20032;-68
2023/03/17 09:04:40;;;;;;;4.18;2.10;;;9.30;58.30;;;;;;5056350;28;20051;-68
2023/03/17 09:07:06;;;;;;;7.75;2.10;;;9.30;60.20;;;;;;5059319;28;20410;-69
2023/03/17 09:09:34;;;;;;;7.78;2.17;;;9.30;59.80;;;;;;5061269;28;20761;-68
2023/03/17 09:12:01;;;;;;;6.05;2.00;;;9.30;58.90;;;;;;5056992;28;20040;-69
2023/03/17 09:14:27;;;;;;;5.05;1.80;;;9.30;58.60;;;;;;5057733;28;20037;-69
2023/03/17 09:16:53;;;;;;;3.65;1.60;;;9.40;60.20;;;;;;5058148;28;20183;-69
2023/03/17 09:19:19;;;;;;;3.20;1.98;;;9.50;58.90;;;;;;5057913;28;20654;-69
2023/03/17 09:21:45;;;;;;;4.50;2.10;;;9.50;58.40;;;;;;5057148;28;20044;-69
2023/03/17 09:24:11;;;;;;;4.00;1.63;;;9.60;58.90;;;;;;5057532;28;20045;-69
2023/03/17 09:26:37;;;;;;;4.03;2.15;;;9.60;57.60;;;;;;5053835;28;20028;-70
2023/03/17 09:29:04;;;;;;;8.10;2.65;;;9.70;58.30;;;;;;5060316;28;20653;-69
2023/03/17 09:31:30;;;;;;;5.95;1.88;;;9.70;57.10;;;;;;5059102;28;20570;-68
2023/03/17 09:33:55;;;;;;;19.92;14.05;;;9.70;57.80;;;;;;5059130;28;20036;-70
2023/03/17 09:36:22;;;;;;;6.25;2.42;;;9.70;56.70;;;;;;5055945;28;20048;-70
2023/03/17 09:38:48;;;;;;;4.60;2.42;;;9.80;56.50;;;;;;5041672;28;20032;-70
2023/03/17 09:41:19;;;;;;;6.90;2.45;;;9.80;56.80;;;;;;5057802;28;20176;-70
2023/03/17 09:44:03;;;;;;;4.93;2.40;;;9.70;58.00;;;;;;5058265;28;20412;-70
2023/03/17 09:46:50;;;;;;;6.00;2.40;;;9.80;57.40;;;;;;5057776;28;20036;-70
2023/03/17 09:49:43;;;;;;;5.38;2.40;;;9.90;57.80;;;;;;5057020;28;20131;-70
2023/03/17 09:52:21;;;;;;;4.22;1.63;;;10.00;56.80;;;;;;5048303;28;20492;-67
2023/03/17 09:54:48;;;;;;;3.63;1.83;;;10.10;55.20;;;;;;5053236;28;20039;-67
2023/03/17 09:57:25;;;;;;;5.65;1.77;;;10.10;55.40;;;;;;5059215;28;20029;-67
2023/03/17 10:00:00;;;;;;;3.58;1.95;;;10.20;55.90;;;;;;5056887;28;20037;-67
2023/03/17 10:02:30;;;;;;;5.70;2.22;;;10.30;56.90;;;;;;5059240;28;20058;-67
2023/03/17 10:04:56;;;;;;;3.42;1.95;;;10.50;57.10;;;;;;5059599;28;20044;-67
2023/03/17 10:08:00;;;;;;;4.10;2.03;;;10.50;54.90;;;;;;5060864;28;20397;-67
2023/03/17 10:10:45;;;;;;;3.80;1.77;;;10.60;55.70;;;;;;5046539;28;20048;-67
2023/03/17 10:13:14;;;;;;;6.65;1.90;;;10.80;54.40;;;;;;5059466;28;20040;-67
2023/03/17 10:16:16;;;;;;;5.38;2.47;;;10.80;53.10;;;;;;5059731;28;20036;-67
2023/03/17 10:18:56;;;;;;;3.35;2.15;;;10.70;54.20;;;;;;5052872;28;20044;-67
2023/03/17 10:21:26;;;;;;;4.60;2.40;;;10.90;53.90;;;;;;5058034;28;20020;-67
2023/03/17 10:23:53;;;;;;;15.23;9.15;;;10.70;53.30;;;;;;5056440;28;20029;-67
2023/03/17 10:26:44;;;;;;;22.17;19.95;;;10.60;53.70;;;;;;5055023;28;20575;-67
2023/03/17 10:29:17;;;;;;;77.77;69.87;;;10.70;53.80;;;;;;5033273;28;20045;-68
2023/03/17 10:31:43;;;;;;;6.50;4.53;;;10.90;53.10;;;;;;5056432;28;20032;-68
2023/03/17 10:34:19;;;;;;;7.70;4.07;;;10.90;53.80;;;;;;5057660;28;20040;-68
2023/03/17 10:37:01;;;;;;;3.97;1.65;;;11.10;53.90;;;;;;5037675;28;20044;-68
2023/03/17 10:39:26;;;;;;;8.15;6.05;;;11.10;52.10;;;;;;5057363;28;20060;-68
2023/03/17 10:42:20;;;;;;;4.05;2.28;;;11.10;52.10;;;;;;5056139;28;20132;-68
2023/03/17 10:45:12;;;;;;;3.85;2.30;;;11.10;51.60;;;;;;5057766;28;20040;-69
2023/03/17 10:47:48;;;;;;;6.15;2.95;;;11.10;52.40;;;;;;5057403;28;20048;-67
2023/03/17 10:50:14;;;;;;;13.98;5.68;;;11.30;53.50;;;;;;5057389;28;20045;-69
2023/03/17 10:52:41;;;;;;;10.77;5.65;;;11.40;52.60;;;;;;5055508;28;20040;-70
2023/03/17 10:55:12;;;;;;;7.30;3.50;;;11.30;52.20;;;;;;5058782;28;20072;-70
2023/03/17 10:57:38;;;;;;;6.67;3.40;;;11.30;52.00;;;;;;5056327;28;20094;-70
2023/03/17 11:00:13;;;;;;;6.65;4.15;;;11.30;53.20;;;;;;5058578;28;20073;-70
2023/03/17 11:02:46;;;;;;;4.65;2.55;;;11.40;51.80;;;;;;5058085;28;20393;-70
2023/03/17 11:05:21;;;;;;;6.57;2.78;;;11.40;52.10;;;;;;5059002;28;20031;-70
2023/03/17 11:07:48;;;;;;;6.25;2.85;;;11.40;52.30;;;;;;5058094;28;20040;-67
2023/03/17 11:10:20;;;;;;;4.10;2.30;;;11.60;51.60;;;;;;5056932;28;20045;-67
2023/03/17 11:12:57;;;;;;;4.45;2.70;;;11.70;51.80;;;;;;5055539;28;20036;-67
2023/03/17 11:15:28;;;;;;;6.13;2.10;;;11.70;52.80;;;;;;5056098;28;20142;-67
2023/03/17 11:18:12;;;;;;;5.10;2.70;;;11.70;50.50;;;;;;5055719;28;20618;-67
2023/03/17 11:20:53;;;;;;;6.35;2.70;;;11.60;51.30;;;;;;5057884;28;20024;-67
2023/03/17 11:23:49;;;;;;;5.68;1.90;;;11.60;51.50;;;;;;5056667;28;20044;-67
2023/03/17 11:26:43;;;;;;;5.50;2.40;;;11.70;51.20;;;;;;5057215;28;20494;-67
2023/03/17 11:29:31;;;;;;;3.20;1.98;;;11.80;52.20;;;;;;5053075;28;20097;-67
2023/03/17 11:32:10;;;;;;;6.40;2.38;;;11.90;49.90;;;;;;5055641;28;20060;-68
2023/03/17 11:35:02;;;;;;;5.18;2.13;;;11.80;49.70;;;;;;5053579;28;20035;-68
2023/03/17 11:37:57;;;;;;;3.78;1.88;;;11.70;50.80;;;;;;5055616;28;20040;-67
2023/03/17 11:40:39;;;;;;;4.07;1.77;;;11.80;49.30;;;;;;5057081;28;20091;-67
2023/03/17 11:43:47;;;;;;;2.72;1.70;;;11.80;50.00;;;;;;5058103;28;20110;-67
2023/03/17 11:46:42;;;;;;;2.80;1.40;;;11.80;49.90;;;;;;5018709;28;20124;-70
2023/03/17 11:49:21;;;;;;;5.20;2.05;;;11.70;50.10;;;;;;5048416;28;20283;-70
2023/03/17 11:52:04;;;;;;;4.70;1.83;;;11.50;50.10;;;;;;5059063;28;20041;-69
2023/03/17 11:54:33;;;;;;;4.32;1.98;;;11.60;50.10;;;;;;5057816;28;20401;-70
2023/03/17 11:57:03;;;;;;;4.53;2.20;;;11.60;49.10;;;;;;5061717;28;20128;-70
2023/03/17 11:59:38;;;;;;;6.60;1.73;;;11.50;48.80;;;;;;5061722;28;20040;-70
2023/03/17 12:02:17;;;;;;;4.88;1.90;;;11.50;49.70;;;;;;5059803;28;20608;-70
2023/03/17 12:05:08;;;;;;;2.78;1.77;;;11.60;48.00;;;;;;5062986;28;20599;-70
2023/03/17 12:08:02;;;;;;;5.15;1.83;;;11.70;47.70;;;;;;5061628;28;20040;-69
2023/03/17 12:10:39;;;;;;;6.03;1.83;;;11.80;48.70;;;;;;5061388;28;20041;-70
2023/03/17 12:13:12;;;;;;;9.98;4.47;;;11.90;48.10;;;;;;5060228;28;20075;-69
2023/03/17 12:15:42;;;;;;;22.10;19.70;;;11.80;47.60;;;;;;5059093;28;20122;-69
2023/03/17 12:18:14;;;;;;;5.07;2.63;;;11.80;48.20;;;;;;5059420;28;20044;-70
2023/03/17 12:20:49;;;;;;;;;;;12.00;48.60;;;;;;5055731;28;20039;-70
2023/03/17 12:23:55;;;;;;;40.72;24.40;;;12.10;47.40;;;;;;5062274;28;19908;-70
2023/03/17 12:26:39;;;;;;;4.07;2.33;;;12.00;47.00;;;;;;5048603;28;20041;-67
2023/03/17 12:29:13;;;;;;;8.52;4.90;;;11.70;46.80;;;;;;5044472;28;20052;-67
2023/03/17 12:31:44;;;;;;;3.35;2.10;;;11.60;48.30;;;;;;5056256;28;20084;-68
2023/03/17 12:34:16;;;;;;;3.80;2.50;;;11.80;47.50;;;;;;5056646;28;20039;-68
2023/03/17 12:36:42;;;;;;;4.00;1.70;;;11.70;47.60;;;;;;5056133;28;20048;-67
2023/03/17 12:39:13;;;;;;;3.75;2.28;;;11.80;47.30;;;;;;5058689;28;20516;-68
2023/03/17 12:42:17;;;;;;;4.15;1.85;;;12.00;46.80;;;;;;5059083;28;20134;-67
2023/03/17 12:45:14;;;;;;;3.13;1.70;;;12.00;48.00;;;;;;5059616;28;20432;-68
2023/03/17 12:48:21;;;;;;;3.22;1.98;;;12.00;48.70;;;;;;5058542;28;20473;-68
2023/03/17 12:51:06;;;;;;;4.82;2.33;;;12.10;47.50;;;;;;5058336;28;20048;-68
2023/03/17 12:53:43;;;;;;;2.85;2.15;;;12.20;46.70;;;;;;5060196;28;20086;-67
2023/03/17 12:56:17;;;;;;;2.67;1.90;;;12.00;46.50;;;;;;5060822;28;20059;-68
2023/03/17 12:58:47;;;;;;;4.60;1.80;;;12.10;47.30;;;;;;5059181;28;20040;-68
2023/03/17 13:01:21;;;;;;;2.72;1.70;;;12.00;47.00;;;;;;5059374;28;20548;-68
2023/03/17 13:04:02;;;;;;;7.15;1.80;;;11.90;47.60;;;;;;5046547;28;20067;-68
2023/03/17 13:06:32;;;;;;;4.15;1.90;;;11.90;47.60;;;;;;5048082;28;20044;-68
2023/03/17 13:09:30;;;;;;;4.07;2.05;;;12.00;46.90;;;;;;5048556;28;20032;-67
2023/03/17 13:11:56;;;;;;;6.40;3.40;;;11.90;47.30;;;;;;5049912;28;20086;-68
2023/03/17 13:14:45;;;;;;;5.65;3.72;;;11.90;48.20;;;;;;5050698;28;20429;-68
2023/03/17 13:17:18;;;;;;;6.70;4.60;;;11.90;47.60;;;;;;5057465;28;20267;-68
2023/03/17 13:19:58;;;;;;;7.32;4.00;;;12.00;47.10;;;;;;5056500;28;20401;-68
2023/03/17 13:22:34;;;;;;;2.90;1.80;;;12.20;47.70;;;;;;5061110;28;20036;-70
2023/03/17 13:25:28;;;;;;;2.60;1.73;;;12.40;46.70;;;;;;5056281;28;20470;-70
2023/03/17 13:28:11;;;;;;;7.50;1.80;;;12.50;48.10;;;;;;5055650;28;20090;-70
2023/03/17 13:30:37;;;;;;;12.73;9.63;;;12.60;47.20;;;;;;5058033;28;20079;-70
2023/03/17 13:33:09;;;;;;;5.53;2.40;;;12.60;47.20;;;;;;5055447;28;20131;-70
2023/03/17 13:35:44;;;;;;;3.15;1.73;;;12.60;46.40;;;;;;5057218;28;20060;-70
2023/03/17 13:38:35;;;;;;;2.47;1.88;;;12.40;45.90;;;;;;5057951;28;20060;-70
2023/03/17 13:41:57;;;;;;;6.50;5.07;;;12.30;46.00;;;;;;5056633;28;20094;-68
2023/03/17 13:44:53;;;;;;;6.00;2.17;;;12.30;45.60;;;;;;4959096;28;20043;-67